Wetterdaten: aktuell Dienstag, 27.10.2020 23:45
Datum Zeit Auentemp. Feuchte A. Luftdruck Niederschl. Wind Richtung Richtung Sonnenschein UV Windben
27.10.2020 23:45 3,2 C 93 % 1013,4 hPa 0,0 l/m 0,0 km/h S-SO 152 0 min 0,0 UV-I 0,0 km/h
27.10.2020 22:45 3,4 C 93 % 1013,5 hPa 0,0 l/m 0,0 km/h S-SO 153 0 min 0,0 UV-I 0,0 km/h
27.10.2020 21:45 4,2 C 93 % 1013,7 hPa 0,0 l/m 0,0 km/h S-SO 153 0 min 0,0 UV-I 0,0 km/h
27.10.2020 20:45 4,6 C 92 % 1013,4 hPa 0,0 l/m 0,0 km/h S-SO 154 0 min 0,0 UV-I 0,0 km/h
27.10.2020 19:45 4,9 C 91 % 1013,2 hPa 0,0 l/m 0,0 km/h S-SO 154 0 min 0,0 UV-I 0,0 km/h
27.10.2020 18:45 5,3 C 89 % 1013,0 hPa 0,0 l/m 0,0 km/h S-SO 154 0 min 0,0 UV-I 0,0 km/h
27.10.2020 17:45 7,3 C 84 % 1012,8 hPa 0,0 l/m 0,0 km/h S-SO 154 0 min 0,0 UV-I 0,0 km/h
27.10.2020 16:45 9,6 C 76 % 1012,5 hPa 0,0 l/m 0,0 km/h S-SW 210 40 min 0,0 UV-I 0,0 km/h
27.10.2020 15:45 11,2 C 73 % 1012,3 hPa 0,0 l/m 0,8 km/h O-SO 113 50 min 0,0 UV-I 8,0 km/h
27.10.2020 14:45 11,8 C 73 % 1012,8 hPa 0,0 l/m 2,5 km/h SW 235 60 min 0,6 UV-I 12,9 km/h
27.10.2020 13:45 9,9 C 79 % 1012,7 hPa 0,0 l/m 5,5 km/h SW 229 30 min 0,9 UV-I 14,5 km/h
27.10.2020 12:45 9,3 C 80 % 1012,7 hPa 0,0 l/m 2,2 km/h SO 145 15 min 0,7 UV-I 9,7 km/h
27.10.2020 11:45 9,1 C 84 % 1012,6 hPa 0,0 l/m 3,4 km/h S 169 20 min 1,1 UV-I 9,7 km/h
27.10.2020 10:45 7,2 C 89 % 1012,7 hPa 0,0 l/m 6,6 km/h SW 229 0 min 0,6 UV-I 14,5 km/h
27.10.2020 09:45 6,7 C 92 % 1012,1 hPa 0,0 l/m 3,2 km/h S-SW 207 0 min 0,5 UV-I 11,3 km/h
27.10.2020 08:45 5,4 C 93 % 1012,2 hPa 0,0 l/m 2,5 km/h O-SO 111 0 min 0,0 UV-I 6,4 km/h
27.10.2020 07:45 4,9 C 94 % 1011,6 hPa 0,0 l/m 0,0 km/h N 0 0 min 0,0 UV-I 0,0 km/h
27.10.2020 06:45 4,9 C 94 % 1011,0 hPa 0,0 l/m 0,0 km/h N 0 0 min 0,0 UV-I 0,0 km/h
27.10.2020 05:45 5,1 C 93 % 1010,9 hPa 0,0 l/m 1,6 km/h O-SO 112 0 min 0,0 UV-I 6,4 km/h
27.10.2020 04:45 5,2 C 93 % 1010,1 hPa 0,0 l/m 0,0 km/h N 0 0 min 0,0 UV-I 0,0 km/h
27.10.2020 03:45 5,4 C 93 % 1009,9 hPa 0,0 l/m 1,6 km/h O-SO 112 0 min 0,0 UV-I 8,0 km/h
27.10.2020 02:45 5,6 C 93 % 1010,2 hPa 0,0 l/m 0,0 km/h O-SO 112 0 min 0,0 UV-I 3,2 km/h
27.10.2020 01:45 5,4 C 93 % 1010,3 hPa 0,0 l/m 0,0 km/h O-SO 112 0 min 0,0 UV-I 6,4 km/h
27.10.2020 00:45 5,4 C 93 % 1010,3 hPa 0,0 l/m 0,0 km/h N 0 0 min 0,0 UV-I 0,0 km/h
27.10.2020 00:00 5,3 C 93 % 1009,9 hPa 0,0 l/m 0,0 km/h N 0 0 min 0,0 UV-I 0,0 km/h
_ Min-Zeit 23:45 16:10 04:10 - 23:45 - - - - 23:45
Minimum _ 3,2 C 72 % 1009,9 hPa - 0,0 km/h - - - - 0,0 km/h
_ Max-Zeit 14:45 23:40 22:25 23:45 13:35 - - 16:25 11:55 13:35
Maximum _ 11,8 C 94 % 1013,7 hPa 0,0 l/m 8,7 km/h
S
- - 5 min 1,4 UV-I 17,7 km/h
S
Durchschnitt _ 6,5 C 88 % 1012,0 hPa #0,0 l/m 0,8 km/h S-SW - #3:35 h 0,7 UV-I 3,4 km/h